Terminal Aerodrome Forecast
Issued by NWS North Platte, NE

Home | Current Version | Previous Version | Text Only | Print | Product List | Glossary Off
Versions: 1 2 3 4 5 6 7 8 9 10 11 12

000
FTUS43 KLBF 171120
TAFVTN
TAF
KVTN 171120Z 1712/1812 28006KT P6SM FEW250 WS020/31040KT
     FM171600 31012G18KT P6SM SKC
     FM171800 32018G25KT P6SM SKC
     FM172300 33010KT P6SM FEW250=

USA.gov is the U.S. government's official web portal to all federal, state and local government web resources and services.